sensor_id;sensor_type;location;lat;lon;timestamp;P1;durP1;ratioP1;P2;durP2;ratioP2
2840;SDS011;53423;49.224;12.074;2022-09-14T00:01:26;11.37;;;9.50;;
2840;SDS011;53423;49.224;12.074;2022-09-14T00:03:57;10.43;;;9.43;;
2840;SDS011;53423;49.224;12.074;2022-09-14T00:06:28;9.60;;;8.70;;
2840;SDS011;53423;49.224;12.074;2022-09-14T00:08:57;10.13;;;9.10;;
2840;SDS011;53423;49.224;12.074;2022-09-14T00:11:28;11.20;;;10.07;;
2840;SDS011;53423;49.224;12.074;2022-09-14T00:13:57;10.77;;;9.37;;
2840;SDS011;53423;49.224;12.074;2022-09-14T00:16:27;11.50;;;10.40;;
2840;SDS011;53423;49.224;12.074;2022-09-14T00:18:57;11.60;;;10.30;;
2840;SDS011;53423;49.224;12.074;2022-09-14T00:21:32;10.83;;;9.93;;
2840;SDS011;53423;49.224;12.074;2022-09-14T00:24:01;10.10;;;9.20;;
2840;SDS011;53423;49.224;12.074;2022-09-14T00:26:30;10.77;;;9.37;;
2840;SDS011;53423;49.224;12.074;2022-09-14T00:28:58;11.00;;;10.00;;
2840;SDS011;53423;49.224;12.074;2022-09-14T00:31:30;11.10;;;10.00;;
2840;SDS011;53423;49.224;12.074;2022-09-14T00:33:59;10.30;;;9.40;;
2840;SDS011;53423;49.224;12.074;2022-09-14T00:36:28;10.43;;;9.43;;
2840;SDS011;53423;49.224;12.074;2022-09-14T00:38:58;10.20;;;9.33;;
2840;SDS011;53423;49.224;12.074;2022-09-14T00:41:27;9.90;;;8.93;;
2840;SDS011;53423;49.224;12.074;2022-09-14T00:43:58;10.10;;;9.10;;
2840;SDS011;53423;49.224;12.074;2022-09-14T00:46:28;11.50;;;9.77;;
2840;SDS011;53423;49.224;12.074;2022-09-14T00:48:58;9.87;;;8.97;;
2840;SDS011;53423;49.224;12.074;2022-09-14T00:51:28;9.80;;;8.73;;
2840;SDS011;53423;49.224;12.074;2022-09-14T00:54:00;9.20;;;8.13;;
2840;SDS011;53423;49.224;12.074;2022-09-14T00:56:29;9.60;;;8.70;;
2840;SDS011;53423;49.224;12.074;2022-09-14T00:58:58;9.87;;;9.07;;
2840;SDS011;53423;49.224;12.074;2022-09-14T01:01:31;10.17;;;9.20;;
2840;SDS011;53423;49.224;12.074;2022-09-14T01:03:59;10.33;;;9.23;;
2840;SDS011;53423;49.224;12.074;2022-09-14T01:06:30;9.50;;;8.67;;
2840;SDS011;53423;49.224;12.074;2022-09-14T01:09:19;9.83;;;8.23;;
2840;SDS011;53423;49.224;12.074;2022-09-14T01:12:01;9.23;;;8.30;;
2840;SDS011;53423;49.224;12.074;2022-09-14T01:14:39;9.20;;;8.40;;
2840;SDS011;53423;49.224;12.074;2022-09-14T01:17:15;11.70;;;9.47;;
2840;SDS011;53423;49.224;12.074;2022-09-14T01:22:48;8.53;;;7.73;;
2840;SDS011;53423;49.224;12.074;2022-09-14T01:25:25;10.27;;;9.07;;
2840;SDS011;53423;49.224;12.074;2022-09-14T01:28:08;9.80;;;8.90;;
2840;SDS011;53423;49.224;12.074;2022-09-14T01:30:39;9.87;;;8.87;;
2840;SDS011;53423;49.224;12.074;2022-09-14T01:33:11;9.87;;;8.90;;
2840;SDS011;53423;49.224;12.074;2022-09-14T01:35:42;9.00;;;8.10;;
2840;SDS011;53423;49.224;12.074;2022-09-14T01:38:16;9.60;;;8.80;;
2840;SDS011;53423;49.224;12.074;2022-09-14T01:40:48;8.97;;;8.10;;
2840;SDS011;53423;49.224;12.074;2022-09-14T01:43:20;9.67;;;8.67;;
2840;SDS011;53423;49.224;12.074;2022-09-14T01:45:52;9.50;;;8.70;;
2840;SDS011;53423;49.224;12.074;2022-09-14T01:48:23;9.50;;;8.77;;
2840;SDS011;53423;49.224;12.074;2022-09-14T01:50:59;10.37;;;9.27;;
2840;SDS011;53423;49.224;12.074;2022-09-14T01:53:31;9.70;;;8.70;;
2840;SDS011;53423;49.224;12.074;2022-09-14T01:56:04;10.23;;;9.30;;
2840;SDS011;53423;49.224;12.074;2022-09-14T01:58:39;10.13;;;9.23;;
2840;SDS011;53423;49.224;12.074;2022-09-14T02:01:12;9.93;;;9.03;;
2840;SDS011;53423;49.224;12.074;2022-09-14T02:03:47;9.30;;;8.53;;
2840;SDS011;53423;49.224;12.074;2022-09-14T02:06:19;10.30;;;9.40;;
2840;SDS011;53423;49.224;12.074;2022-09-14T02:08:50;9.07;;;8.27;;
2840;SDS011;53423;49.224;12.074;2022-09-14T02:11:19;9.50;;;8.57;;
2840;SDS011;53423;49.224;12.074;2022-09-14T02:13:48;10.93;;;9.10;;
2840;SDS011;53423;49.224;12.074;2022-09-14T02:16:16;9.53;;;8.60;;
2840;SDS011;53423;49.224;12.074;2022-09-14T02:18:45;10.40;;;9.37;;
2840;SDS011;53423;49.224;12.074;2022-09-14T02:21:14;10.00;;;9.07;;
2840;SDS011;53423;49.224;12.074;2022-09-14T02:23:44;9.17;;;8.37;;
2840;SDS011;53423;49.224;12.074;2022-09-14T02:26:13;9.73;;;8.83;;
2840;SDS011;53423;49.224;12.074;2022-09-14T02:28:42;10.30;;;9.40;;
2840;SDS011;53423;49.224;12.074;2022-09-14T02:31:15;9.63;;;8.67;;
2840;SDS011;53423;49.224;12.074;2022-09-14T02:33:51;10.47;;;9.57;;
2840;SDS011;53423;49.224;12.074;2022-09-14T02:36:27;9.23;;;8.40;;
2840;SDS011;53423;49.224;12.074;2022-09-14T02:39:05;11.60;;;9.80;;
2840;SDS011;53423;49.224;12.074;2022-09-14T02:41:41;10.07;;;9.17;;
2840;SDS011;53423;49.224;12.074;2022-09-14T02:44:16;11.57;;;10.03;;
2840;SDS011;53423;49.224;12.074;2022-09-14T02:46:53;9.50;;;8.70;;
2840;SDS011;53423;49.224;12.074;2022-09-14T02:49:28;10.47;;;9.50;;
2840;SDS011;53423;49.224;12.074;2022-09-14T02:52:05;10.80;;;9.70;;
2840;SDS011;53423;49.224;12.074;2022-09-14T02:54:42;10.50;;;9.20;;
2840;SDS011;53423;49.224;12.074;2022-09-14T02:57:14;10.47;;;9.47;;
2840;SDS011;53423;49.224;12.074;2022-09-14T02:59:42;9.90;;;9.10;;
2840;SDS011;53423;49.224;12.074;2022-09-14T03:02:12;10.17;;;9.20;;
2840;SDS011;53423;49.224;12.074;2022-09-14T03:04:40;10.43;;;9.40;;
2840;SDS011;53423;49.224;12.074;2022-09-14T03:07:08;9.23;;;8.43;;
2840;SDS011;53423;49.224;12.074;2022-09-14T03:09:36;9.63;;;8.63;;
2840;SDS011;53423;49.224;12.074;2022-09-14T03:12:04;9.20;;;8.40;;
2840;SDS011;53423;49.224;12.074;2022-09-14T03:14:32;10.37;;;9.47;;
2840;SDS011;53423;49.224;12.074;2022-09-14T03:17:00;10.37;;;9.50;;
2840;SDS011;53423;49.224;12.074;2022-09-14T03:19:29;9.83;;;9.03;;
2840;SDS011;53423;49.224;12.074;2022-09-14T03:21:57;10.37;;;9.47;;
2840;SDS011;53423;49.224;12.074;2022-09-14T03:24:25;9.70;;;8.83;;
2840;SDS011;53423;49.224;12.074;2022-09-14T03:26:54;9.67;;;8.87;;
2840;SDS011;53423;49.224;12.074;2022-09-14T03:29:22;9.97;;;9.10;;
2840;SDS011;53423;49.224;12.074;2022-09-14T03:31:50;9.47;;;8.67;;
2840;SDS011;53423;49.224;12.074;2022-09-14T03:34:18;10.00;;;9.20;;
2840;SDS011;53423;49.224;12.074;2022-09-14T03:36:47;9.67;;;8.77;;
2840;SDS011;53423;49.224;12.074;2022-09-14T03:39:15;9.87;;;9.00;;
2840;SDS011;53423;49.224;12.074;2022-09-14T03:41:43;10.37;;;9.47;;
2840;SDS011;53423;49.224;12.074;2022-09-14T03:44:11;10.83;;;9.73;;
2840;SDS011;53423;49.224;12.074;2022-09-14T03:46:39;10.50;;;9.57;;
2840;SDS011;53423;49.224;12.074;2022-09-14T03:49:07;10.63;;;9.57;;
2840;SDS011;53423;49.224;12.074;2022-09-14T03:51:35;9.50;;;8.73;;
2840;SDS011;53423;49.224;12.074;2022-09-14T03:54:05;9.93;;;9.07;;
2840;SDS011;53423;49.224;12.074;2022-09-14T03:56:33;9.50;;;8.70;;
2840;SDS011;53423;49.224;12.074;2022-09-14T03:59:01;9.43;;;8.57;;
2840;SDS011;53423;49.224;12.074;2022-09-14T04:01:29;10.43;;;9.43;;
2840;SDS011;53423;49.224;12.074;2022-09-14T04:03:58;10.53;;;9.63;;
2840;SDS011;53423;49.224;12.074;2022-09-14T04:06:26;10.67;;;9.57;;
2840;SDS011;53423;49.224;12.074;2022-09-14T04:08:54;10.53;;;9.53;;
2840;SDS011;53423;49.224;12.074;2022-09-14T04:11:23;10.83;;;9.13;;
2840;SDS011;53423;49.224;12.074;2022-09-14T04:13:51;10.50;;;8.43;;
2840;SDS011;53423;49.224;12.074;2022-09-14T04:16:20;10.03;;;8.87;;
2840;SDS011;53423;49.224;12.074;2022-09-14T04:18:49;10.00;;;9.10;;
2840;SDS011;53423;49.224;12.074;2022-09-14T04:21:18;9.63;;;8.80;;
2840;SDS011;53423;49.224;12.074;2022-09-14T04:23:47;9.60;;;8.57;;
2840;SDS011;53423;49.224;12.074;2022-09-14T04:26:40;11.43;;;9.73;;
2840;SDS011;53423;49.224;12.074;2022-09-14T04:29:08;11.87;;;9.97;;
2840;SDS011;53423;49.224;12.074;2022-09-14T04:31:37;11.43;;;9.87;;
2840;SDS011;53423;49.224;12.074;2022-09-14T04:34:05;10.57;;;9.50;;
2840;SDS011;53423;49.224;12.074;2022-09-14T04:36:33;10.73;;;9.70;;
2840;SDS011;53423;49.224;12.074;2022-09-14T04:39:02;10.77;;;9.67;;
2840;SDS011;53423;49.224;12.074;2022-09-14T04:41:30;10.43;;;9.53;;
2840;SDS011;53423;49.224;12.074;2022-09-14T04:44:00;11.17;;;10.17;;
2840;SDS011;53423;49.224;12.074;2022-09-14T04:46:29;10.53;;;9.63;;
2840;SDS011;53423;49.224;12.074;2022-09-14T04:49:00;11.10;;;10.10;;
2840;SDS011;53423;49.224;12.074;2022-09-14T04:51:29;10.87;;;9.90;;
2840;SDS011;53423;49.224;12.074;2022-09-14T04:53:58;10.67;;;9.67;;
2840;SDS011;53423;49.224;12.074;2022-09-14T04:56:29;10.80;;;9.80;;
2840;SDS011;53423;49.224;12.074;2022-09-14T04:59:00;11.10;;;10.03;;
2840;SDS011;53423;49.224;12.074;2022-09-14T05:01:32;11.00;;;9.97;;
2840;SDS011;53423;49.224;12.074;2022-09-14T05:04:01;11.30;;;10.30;;
2840;SDS011;53423;49.224;12.074;2022-09-14T05:06:30;11.60;;;10.43;;
2840;SDS011;53423;49.224;12.074;2022-09-14T05:09:00;11.33;;;10.33;;
2840;SDS011;53423;49.224;12.074;2022-09-14T05:11:30;12.47;;;11.17;;
2840;SDS011;53423;49.224;12.074;2022-09-14T05:14:00;12.47;;;11.20;;
2840;SDS011;53423;49.224;12.074;2022-09-14T05:16:30;13.20;;;12.10;;
2840;SDS011;53423;49.224;12.074;2022-09-14T05:18:59;12.53;;;11.53;;
2840;SDS011;53423;49.224;12.074;2022-09-14T05:21:29;14.00;;;12.70;;
2840;SDS011;53423;49.224;12.074;2022-09-14T05:23:59;13.60;;;12.37;;
2840;SDS011;53423;49.224;12.074;2022-09-14T05:26:29;12.77;;;11.63;;
2840;SDS011;53423;49.224;12.074;2022-09-14T05:28:58;15.00;;;13.70;;
2840;SDS011;53423;49.224;12.074;2022-09-14T05:31:29;15.90;;;14.47;;
2840;SDS011;53423;49.224;12.074;2022-09-14T05:33:58;14.23;;;12.93;;
2840;SDS011;53423;49.224;12.074;2022-09-14T05:36:26;15.63;;;14.13;;
2840;SDS011;53423;49.224;12.074;2022-09-14T05:38:54;16.23;;;12.90;;
2840;SDS011;53423;49.224;12.074;2022-09-14T05:41:23;14.60;;;13.13;;
2840;SDS011;53423;49.224;12.074;2022-09-14T05:43:51;14.93;;;13.03;;
2840;SDS011;53423;49.224;12.074;2022-09-14T05:46:19;14.40;;;13.20;;
2840;SDS011;53423;49.224;12.074;2022-09-14T05:48:49;13.93;;;12.70;;
2840;SDS011;53423;49.224;12.074;2022-09-14T05:51:18;14.30;;;13.00;;
2840;SDS011;53423;49.224;12.074;2022-09-14T05:53:47;14.20;;;12.90;;
2840;SDS011;53423;49.224;12.074;2022-09-14T05:56:17;15.77;;;14.27;;
2840;SDS011;53423;49.224;12.074;2022-09-14T05:58:46;14.27;;;13.00;;
2840;SDS011;53423;49.224;12.074;2022-09-14T06:01:15;17.43;;;15.83;;
2840;SDS011;53423;49.224;12.074;2022-09-14T06:03:45;14.50;;;13.20;;
2840;SDS011;53423;49.224;12.074;2022-09-14T06:06:17;14.20;;;12.93;;
2840;SDS011;53423;49.224;12.074;2022-09-14T06:08:47;16.03;;;14.53;;
2840;SDS011;53423;49.224;12.074;2022-09-14T06:11:18;15.13;;;13.83;;
2840;SDS011;53423;49.224;12.074;2022-09-14T06:13:48;15.70;;;14.30;;
2840;SDS011;53423;49.224;12.074;2022-09-14T06:16:18;14.77;;;13.40;;
2840;SDS011;53423;49.224;12.074;2022-09-14T06:18:47;15.23;;;13.93;;
2840;SDS011;53423;49.224;12.074;2022-09-14T06:21:17;16.13;;;14.63;;
2840;SDS011;53423;49.224;12.074;2022-09-14T06:23:48;18.00;;;16.33;;
2840;SDS011;53423;49.224;12.074;2022-09-14T06:26:16;17.40;;;15.90;;
2840;SDS011;53423;49.224;12.074;2022-09-14T06:28:44;15.40;;;13.90;;
2840;SDS011;53423;49.224;12.074;2022-09-14T06:31:12;14.73;;;13.47;;
2840;SDS011;53423;49.224;12.074;2022-09-14T06:33:43;13.80;;;12.53;;
2840;SDS011;53423;49.224;12.074;2022-09-14T06:36:12;15.60;;;14.20;;
2840;SDS011;53423;49.224;12.074;2022-09-14T06:38:45;15.73;;;14.13;;
2840;SDS011;53423;49.224;12.074;2022-09-14T06:41:16;15.37;;;13.93;;
2840;SDS011;53423;49.224;12.074;2022-09-14T06:43:46;14.43;;;13.23;;
2840;SDS011;53423;49.224;12.074;2022-09-14T06:46:15;15.70;;;14.30;;
2840;SDS011;53423;49.224;12.074;2022-09-14T06:48:46;13.60;;;12.40;;
2840;SDS011;53423;49.224;12.074;2022-09-14T06:51:17;14.93;;;13.63;;
2840;SDS011;53423;49.224;12.074;2022-09-14T06:53:48;14.40;;;13.10;;
2840;SDS011;53423;49.224;12.074;2022-09-14T06:56:17;13.87;;;12.50;;
2840;SDS011;53423;49.224;12.074;2022-09-14T06:58:45;14.33;;;13.07;;
2840;SDS011;53423;49.224;12.074;2022-09-14T07:01:14;13.27;;;11.97;;
2840;SDS011;53423;49.224;12.074;2022-09-14T07:03:43;13.83;;;12.63;;
2840;SDS011;53423;49.224;12.074;2022-09-14T07:06:13;16.73;;;15.23;;
2840;SDS011;53423;49.224;12.074;2022-09-14T07:08:42;14.03;;;12.83;;
2840;SDS011;53423;49.224;12.074;2022-09-14T07:11:13;13.47;;;12.27;;
2840;SDS011;53423;49.224;12.074;2022-09-14T07:13:42;14.73;;;13.33;;
2840;SDS011;53423;49.224;12.074;2022-09-14T07:16:11;13.17;;;12.00;;
2840;SDS011;53423;49.224;12.074;2022-09-14T07:18:40;14.23;;;12.73;;
2840;SDS011;53423;49.224;12.074;2022-09-14T07:21:09;13.27;;;12.07;;
2840;SDS011;53423;49.224;12.074;2022-09-14T07:23:39;12.87;;;11.67;;
2840;SDS011;53423;49.224;12.074;2022-09-14T07:26:09;12.67;;;11.37;;
2840;SDS011;53423;49.224;12.074;2022-09-14T07:28:40;12.47;;;11.37;;
2840;SDS011;53423;49.224;12.074;2022-09-14T07:31:13;12.27;;;11.07;;
2840;SDS011;53423;49.224;12.074;2022-09-14T07:33:44;12.93;;;11.83;;
2840;SDS011;53423;49.224;12.074;2022-09-14T07:36:12;12.97;;;11.80;;
2840;SDS011;53423;49.224;12.074;2022-09-14T07:38:41;13.70;;;12.47;;
2840;SDS011;53423;49.224;12.074;2022-09-14T07:41:18;13.70;;;12.40;;
2840;SDS011;53423;49.224;12.074;2022-09-14T07:43:48;13.10;;;12.00;;
2840;SDS011;53423;49.224;12.074;2022-09-14T07:46:17;13.13;;;12.03;;
2840;SDS011;53423;49.224;12.074;2022-09-14T07:48:47;13.07;;;11.97;;
2840;SDS011;53423;49.224;12.074;2022-09-14T07:51:15;13.00;;;11.97;;
2840;SDS011;53423;49.224;12.074;2022-09-14T07:53:43;12.47;;;11.27;;
2840;SDS011;53423;49.224;12.074;2022-09-14T07:56:11;12.97;;;11.97;;
2840;SDS011;53423;49.224;12.074;2022-09-14T07:58:42;12.93;;;11.93;;
2840;SDS011;53423;49.224;12.074;2022-09-14T08:01:12;14.77;;;13.47;;
2840;SDS011;53423;49.224;12.074;2022-09-14T08:03:43;12.93;;;11.73;;
2840;SDS011;53423;49.224;12.074;2022-09-14T08:06:14;13.53;;;12.43;;
2840;SDS011;53423;49.224;12.074;2022-09-14T08:08:44;11.97;;;10.97;;
2840;SDS011;53423;49.224;12.074;2022-09-14T08:11:14;11.67;;;10.77;;
2840;SDS011;53423;49.224;12.074;2022-09-14T08:13:44;11.20;;;10.23;;
2840;SDS011;53423;49.224;12.074;2022-09-14T08:16:16;11.20;;;10.40;;
2840;SDS011;53423;49.224;12.074;2022-09-14T08:18:45;11.87;;;10.87;;
2840;SDS011;53423;49.224;12.074;2022-09-14T08:21:14;10.27;;;9.47;;
2840;SDS011;53423;49.224;12.074;2022-09-14T08:23:44;10.43;;;9.63;;
2840;SDS011;53423;49.224;12.074;2022-09-14T08:26:12;10.90;;;10.00;;
2840;SDS011;53423;49.224;12.074;2022-09-14T08:28:41;10.60;;;9.70;;
2840;SDS011;53423;49.224;12.074;2022-09-14T08:31:10;10.30;;;9.50;;
2840;SDS011;53423;49.224;12.074;2022-09-14T08:33:42;11.40;;;10.50;;
2840;SDS011;53423;49.224;12.074;2022-09-14T08:36:12;11.27;;;10.23;;
2840;SDS011;53423;49.224;12.074;2022-09-14T08:38:42;11.80;;;10.70;;
2840;SDS011;53423;49.224;12.074;2022-09-14T08:41:15;11.43;;;10.43;;
2840;SDS011;53423;49.224;12.074;2022-09-14T08:43:50;11.97;;;10.97;;
2840;SDS011;53423;49.224;12.074;2022-09-14T08:46:21;11.93;;;10.83;;
2840;SDS011;53423;49.224;12.074;2022-09-14T08:48:56;11.93;;;10.93;;
2840;SDS011;53423;49.224;12.074;2022-09-14T08:51:26;12.33;;;11.23;;
2840;SDS011;53423;49.224;12.074;2022-09-14T08:53:54;11.63;;;10.73;;
2840;SDS011;53423;49.224;12.074;2022-09-14T08:56:25;13.00;;;11.77;;
2840;SDS011;53423;49.224;12.074;2022-09-14T08:59:22;13.30;;;12.10;;
2840;SDS011;53423;49.224;12.074;2022-09-14T09:02:21;13.50;;;12.30;;
2840;SDS011;53423;49.224;12.074;2022-09-14T09:04:59;13.10;;;12.00;;
2840;SDS011;53423;49.224;12.074;2022-09-14T09:07:34;12.67;;;11.57;;
2840;SDS011;53423;49.224;12.074;2022-09-14T09:10:09;13.13;;;11.93;;
2840;SDS011;53423;49.224;12.074;2022-09-14T09:12:41;13.20;;;12.07;;
2840;SDS011;53423;49.224;12.074;2022-09-14T09:15:15;12.90;;;11.73;;
2840;SDS011;53423;49.224;12.074;2022-09-14T09:17:47;11.43;;;10.53;;
2840;SDS011;53423;49.224;12.074;2022-09-14T09:20:22;11.77;;;10.83;;
2840;SDS011;53423;49.224;12.074;2022-09-14T09:22:57;13.00;;;10.70;;
2840;SDS011;53423;49.224;12.074;2022-09-14T09:25:39;11.67;;;10.67;;
2840;SDS011;53423;49.224;12.074;2022-09-14T09:28:24;11.63;;;10.43;;
2840;SDS011;53423;49.224;12.074;2022-09-14T09:30:54;12.20;;;11.10;;
2840;SDS011;53423;49.224;12.074;2022-09-14T09:33:25;11.83;;;10.93;;
2840;SDS011;53423;49.224;12.074;2022-09-14T09:35:55;13.10;;;11.90;;
2840;SDS011;53423;49.224;12.074;2022-09-14T09:38:25;12.23;;;11.23;;
2840;SDS011;53423;49.224;12.074;2022-09-14T09:40:55;12.87;;;11.87;;
2840;SDS011;53423;49.224;12.074;2022-09-14T09:43:25;12.27;;;11.20;;
2840;SDS011;53423;49.224;12.074;2022-09-14T09:46:13;13.63;;;12.53;;
2840;SDS011;53423;49.224;12.074;2022-09-14T09:48:42;12.57;;;11.67;;
2840;SDS011;53423;49.224;12.074;2022-09-14T09:51:13;12.93;;;11.93;;
2840;SDS011;53423;49.224;12.074;2022-09-14T09:53:50;13.30;;;12.20;;
2840;SDS011;53423;49.224;12.074;2022-09-14T09:56:20;13.93;;;12.83;;
2840;SDS011;53423;49.224;12.074;2022-09-14T09:58:50;14.37;;;13.17;;
2840;SDS011;53423;49.224;12.074;2022-09-14T10:01:19;14.20;;;13.10;;
2840;SDS011;53423;49.224;12.074;2022-09-14T10:03:59;14.70;;;13.50;;
2840;SDS011;53423;49.224;12.074;2022-09-14T10:06:34;14.93;;;13.83;;
2840;SDS011;53423;49.224;12.074;2022-09-14T10:09:12;14.47;;;13.23;;
2840;SDS011;53423;49.224;12.074;2022-09-14T10:11:42;16.13;;;14.80;;
2840;SDS011;53423;49.224;12.074;2022-09-14T10:14:19;15.63;;;14.43;;
2840;SDS011;53423;49.224;12.074;2022-09-14T10:16:50;15.43;;;13.93;;
2840;SDS011;53423;49.224;12.074;2022-09-14T10:19:20;15.23;;;14.00;;
2840;SDS011;53423;49.224;12.074;2022-09-14T10:24:53;15.17;;;13.57;;
2840;SDS011;53423;49.224;12.074;2022-09-14T10:27:32;15.57;;;14.33;;
2840;SDS011;53423;49.224;12.074;2022-09-14T10:30:09;16.97;;;15.67;;
2840;SDS011;53423;49.224;12.074;2022-09-14T10:32:41;16.17;;;14.97;;
2840;SDS011;53423;49.224;12.074;2022-09-14T10:35:12;16.83;;;15.53;;
2840;SDS011;53423;49.224;12.074;2022-09-14T10:37:51;16.73;;;15.40;;
2840;SDS011;53423;49.224;12.074;2022-09-14T10:40:34;16.57;;;15.17;;
2840;SDS011;53423;49.224;12.074;2022-09-14T10:43:09;15.87;;;14.60;;
2840;SDS011;53423;49.224;12.074;2022-09-14T10:45:43;16.77;;;15.27;;
2840;SDS011;53423;49.224;12.074;2022-09-14T10:48:25;15.83;;;14.53;;
2840;SDS011;53423;49.224;12.074;2022-09-14T10:51:06;16.63;;;15.23;;
2840;SDS011;53423;49.224;12.074;2022-09-14T10:53:57;17.10;;;15.77;;
2840;SDS011;53423;49.224;12.074;2022-09-14T10:56:33;16.27;;;14.77;;
2840;SDS011;53423;49.224;12.074;2022-09-14T10:59:14;16.30;;;14.93;;
2840;SDS011;53423;49.224;12.074;2022-09-14T11:02:08;16.20;;;14.70;;
2840;SDS011;53423;49.224;12.074;2022-09-14T11:05:03;15.17;;;13.87;;
2840;SDS011;53423;49.224;12.074;2022-09-14T11:07:40;15.10;;;13.90;;
2840;SDS011;53423;49.224;12.074;2022-09-14T11:10:20;16.70;;;15.23;;
2840;SDS011;53423;49.224;12.074;2022-09-14T11:13:02;16.93;;;15.43;;
2840;SDS011;53423;49.224;12.074;2022-09-14T11:15:40;16.00;;;14.60;;
2840;SDS011;53423;49.224;12.074;2022-09-14T11:18:18;16.23;;;14.93;;
2840;SDS011;53423;49.224;12.074;2022-09-14T11:20:59;14.03;;;12.73;;
2840;SDS011;53423;49.224;12.074;2022-09-14T11:23:39;13.03;;;12.03;;
2840;SDS011;53423;49.224;12.074;2022-09-14T11:26:23;12.20;;;11.20;;
2840;SDS011;53423;49.224;12.074;2022-09-14T11:28:58;11.93;;;11.03;;
2840;SDS011;53423;49.224;12.074;2022-09-14T11:31:35;12.00;;;11.10;;
2840;SDS011;53423;49.224;12.074;2022-09-14T11:34:30;11.90;;;10.97;;
2840;SDS011;53423;49.224;12.074;2022-09-14T11:37:02;11.17;;;10.37;;
2840;SDS011;53423;49.224;12.074;2022-09-14T11:39:34;10.53;;;9.80;;
2840;SDS011;53423;49.224;12.074;2022-09-14T11:42:11;9.73;;;8.93;;
2840;SDS011;53423;49.224;12.074;2022-09-14T11:44:44;8.40;;;7.70;;
2840;SDS011;53423;49.224;12.074;2022-09-14T11:47:13;7.07;;;6.47;;
2840;SDS011;53423;49.224;12.074;2022-09-14T11:49:48;5.33;;;4.93;;
2840;SDS011;53423;49.224;12.074;2022-09-14T11:52:23;4.80;;;4.30;;
2840;SDS011;53423;49.224;12.074;2022-09-14T11:54:53;4.17;;;3.80;;
2840;SDS011;53423;49.224;12.074;2022-09-14T11:57:24;3.63;;;3.33;;
2840;SDS011;53423;49.224;12.074;2022-09-14T11:59:54;3.60;;;3.20;;
2840;SDS011;53423;49.224;12.074;2022-09-14T12:05:38;3.13;;;2.78;;
2840;SDS011;53423;49.224;12.074;2022-09-14T12:08:35;3.72;;;3.42;;
2840;SDS011;53423;49.224;12.074;2022-09-14T12:11:24;3.25;;;3.05;;
2840;SDS011;53423;49.224;12.074;2022-09-14T12:17:24;3.00;;;2.80;;
2840;SDS011;53423;49.224;12.074;2022-09-14T12:20:24;3.10;;;2.80;;
2840;SDS011;53423;49.224;12.074;2022-09-14T12:23:40;3.05;;;2.85;;
2840;SDS011;53423;49.224;12.074;2022-09-14T12:26:34;3.88;;;2.70;;
2840;SDS011;53423;49.224;12.074;2022-09-14T12:29:28;3.30;;;3.10;;
2840;SDS011;53423;49.224;12.074;2022-09-14T12:35:42;2.90;;;2.70;;
2840;SDS011;53423;49.224;12.074;2022-09-14T12:44:39;3.03;;;2.83;;
2840;SDS011;53423;49.224;12.074;2022-09-14T12:50:09;3.53;;;3.20;;
2840;SDS011;53423;49.224;12.074;2022-09-14T12:52:44;3.10;;;2.80;;
2840;SDS011;53423;49.224;12.074;2022-09-14T12:55:46;3.38;;;3.05;;
2840;SDS011;53423;49.224;12.074;2022-09-14T12:58:28;3.20;;;3.00;;
2840;SDS011;53423;49.224;12.074;2022-09-14T13:01:16;3.95;;;3.08;;
2840;SDS011;53423;49.224;12.074;2022-09-14T13:03:53;3.42;;;3.03;;
2840;SDS011;53423;49.224;12.074;2022-09-14T13:06:23;3.47;;;3.10;;
2840;SDS011;53423;49.224;12.074;2022-09-14T13:08:55;3.83;;;3.10;;
2840;SDS011;53423;49.224;12.074;2022-09-14T13:11:25;4.82;;;2.90;;
2840;SDS011;53423;49.224;12.074;2022-09-14T13:13:58;3.58;;;3.28;;
2840;SDS011;53423;49.224;12.074;2022-09-14T13:16:33;3.60;;;3.20;;
2840;SDS011;53423;49.224;12.074;2022-09-14T13:19:15;4.05;;;3.30;;
2840;SDS011;53423;49.224;12.074;2022-09-14T13:21:46;3.72;;;3.50;;
2840;SDS011;53423;49.224;12.074;2022-09-14T13:27:04;3.55;;;3.25;;
2840;SDS011;53423;49.224;12.074;2022-09-14T13:29:41;4.07;;;3.58;;
2840;SDS011;53423;49.224;12.074;2022-09-14T13:32:19;3.20;;;2.92;;
2840;SDS011;53423;49.224;12.074;2022-09-14T13:34:47;3.53;;;3.20;;
2840;SDS011;53423;49.224;12.074;2022-09-14T13:37:15;3.55;;;3.25;;
2840;SDS011;53423;49.224;12.074;2022-09-14T13:39:47;4.68;;;3.70;;
2840;SDS011;53423;49.224;12.074;2022-09-14T13:42:17;3.47;;;3.17;;
2840;SDS011;53423;49.224;12.074;2022-09-14T13:44:46;3.55;;;3.30;;
2840;SDS011;53423;49.224;12.074;2022-09-14T13:47:18;3.67;;;3.47;;
2840;SDS011;53423;49.224;12.074;2022-09-14T13:49:48;3.95;;;3.63;;
2840;SDS011;53423;49.224;12.074;2022-09-14T13:52:22;4.03;;;3.65;;
2840;SDS011;53423;49.224;12.074;2022-09-14T13:55:16;4.70;;;3.67;;
2840;SDS011;53423;49.224;12.074;2022-09-14T13:58:05;3.83;;;3.53;;
2840;SDS011;53423;49.224;12.074;2022-09-14T14:00:54;4.72;;;3.85;;
2840;SDS011;53423;49.224;12.074;2022-09-14T14:03:29;3.55;;;3.25;;
2840;SDS011;53423;49.224;12.074;2022-09-14T14:06:00;5.50;;;3.88;;
2840;SDS011;53423;49.224;12.074;2022-09-14T14:08:42;3.85;;;3.55;;
2840;SDS011;53423;49.224;12.074;2022-09-14T14:11:10;5.07;;;3.83;;
2840;SDS011;53423;49.224;12.074;2022-09-14T14:13:38;4.30;;;3.55;;
2840;SDS011;53423;49.224;12.074;2022-09-14T14:16:13;4.15;;;3.80;;
2840;SDS011;53423;49.224;12.074;2022-09-14T14:18:49;3.78;;;3.47;;
2840;SDS011;53423;49.224;12.074;2022-09-14T14:21:29;4.28;;;3.80;;
2840;SDS011;53423;49.224;12.074;2022-09-14T14:24:17;3.90;;;3.53;;
2840;SDS011;53423;49.224;12.074;2022-09-14T14:26:53;4.47;;;4.05;;
2840;SDS011;53423;49.224;12.074;2022-09-14T14:29:22;5.35;;;4.28;;
2840;SDS011;53423;49.224;12.074;2022-09-14T14:31:52;4.32;;;3.92;;
2840;SDS011;53423;49.224;12.074;2022-09-14T14:34:23;4.15;;;3.75;;
2840;SDS011;53423;49.224;12.074;2022-09-14T14:36:54;5.18;;;3.85;;
2840;SDS011;53423;49.224;12.074;2022-09-14T14:39:23;5.72;;;4.40;;
2840;SDS011;53423;49.224;12.074;2022-09-14T14:41:52;8.35;;;5.22;;
2840;SDS011;53423;49.224;12.074;2022-09-14T14:44:21;9.60;;;5.95;;
2840;SDS011;53423;49.224;12.074;2022-09-14T14:46:51;8.68;;;5.22;;
2840;SDS011;53423;49.224;12.074;2022-09-14T14:49:19;12.35;;;5.60;;
2840;SDS011;53423;49.224;12.074;2022-09-14T14:51:50;14.68;;;5.88;;
2840;SDS011;53423;49.224;12.074;2022-09-14T14:54:18;7.82;;;4.95;;
2840;SDS011;53423;49.224;12.074;2022-09-14T14:56:47;4.80;;;4.30;;
2840;SDS011;53423;49.224;12.074;2022-09-14T14:59:25;6.57;;;4.65;;
2840;SDS011;53423;49.224;12.074;2022-09-14T15:01:55;7.00;;;4.68;;
2840;SDS011;53423;49.224;12.074;2022-09-14T15:04:23;10.02;;;5.70;;
2840;SDS011;53423;49.224;12.074;2022-09-14T15:06:53;6.32;;;4.80;;
2840;SDS011;53423;49.224;12.074;2022-09-14T15:09:23;4.30;;;4.00;;
2840;SDS011;53423;49.224;12.074;2022-09-14T15:11:52;4.68;;;4.28;;
2840;SDS011;53423;49.224;12.074;2022-09-14T15:14:21;4.20;;;3.90;;
2840;SDS011;53423;49.224;12.074;2022-09-14T15:16:52;5.30;;;4.20;;
2840;SDS011;53423;49.224;12.074;2022-09-14T15:19:25;4.80;;;3.95;;
2840;SDS011;53423;49.224;12.074;2022-09-14T15:21:55;4.55;;;4.05;;
2840;SDS011;53423;49.224;12.074;2022-09-14T15:24:27;4.20;;;3.80;;
2840;SDS011;53423;49.224;12.074;2022-09-14T15:26:55;4.47;;;4.07;;
2840;SDS011;53423;49.224;12.074;2022-09-14T15:29:24;5.22;;;4.70;;
2840;SDS011;53423;49.224;12.074;2022-09-14T15:31:52;4.80;;;4.18;;
2840;SDS011;53423;49.224;12.074;2022-09-14T15:34:20;5.40;;;4.80;;